Pottersville, Indiana
Current Conditions -  °F | °C
As of 10:53 PM on Thursday 18 Dec 2014 (Local Time) from KBMG Reporting Station
Broken Clouds Broken Clouds  
Wind Chill: -4°   Ceiling: 6000
Heat Index: -4°   Visibility: 7mi
Dew Point: -6°   Wind: 0mph
Humidity: 91%   Direction: NA
Pressure: 30.26"   Gusts: NA
Location:  39.3008°N, 86.8112°W
Report Text: KBMG 190353Z AUTO 00000KT 7SM FEW046 BKN060 M04/M06 A3026 RMK AO2 SLP256 T10441056
Loading
Personal Weather Stations






























Interactive Weather Map New forecast layout! Learn more

10-Day Weather Forecast

Advertisements
Track Severe Weather on mobile